createdAt,value
2022-11-12T00:01:14.920Z,10.80
2022-11-12T00:03:43.231Z,11.11
2022-11-12T00:06:11.547Z,10.74
2022-11-12T00:08:39.847Z,10.04
2022-11-12T00:11:09.559Z,10.45
2022-11-12T00:13:37.897Z,10.60
2022-11-12T00:16:07.039Z,10.41
2022-11-12T00:18:35.440Z,10.29
2022-11-12T00:21:03.787Z,10.61
2022-11-12T00:23:32.083Z,10.98
2022-11-12T00:26:01.209Z,9.88
2022-11-12T00:28:36.388Z,10.19
2022-11-12T00:31:10.727Z,10.41
2022-11-12T00:33:42.640Z,10.70
2022-11-12T00:36:11.435Z,10.66
2022-11-12T00:38:39.776Z,10.47
2022-11-12T00:41:08.118Z,10.33
2022-11-12T00:43:37.839Z,11.08
2022-11-12T00:46:06.290Z,10.88
2022-11-12T00:48:34.619Z,10.63
2022-11-12T00:51:04.269Z,11.26
2022-11-12T00:53:32.631Z,11.04
2022-11-12T00:56:02.241Z,11.39
2022-11-12T00:58:31.352Z,11.32
2022-11-12T01:01:06.338Z,11.52
2022-11-12T01:03:34.884Z,11.73
2022-11-12T01:06:04.666Z,11.63
2022-11-12T01:08:33.223Z,11.56
2022-11-12T01:11:07.367Z,11.97
2022-11-12T01:13:37.790Z,11.67
2022-11-12T01:16:13.368Z,11.85
2022-11-12T01:18:41.661Z,11.53
2022-11-12T01:21:10.097Z,12.06
2022-11-12T01:23:39.926Z,12.04
2022-11-12T01:26:09.876Z,12.25
2022-11-12T01:28:39.008Z,12.23
2022-11-12T01:31:16.943Z,12.40
2022-11-12T01:33:47.643Z,12.27
2022-11-12T01:36:16.288Z,12.18
2022-11-12T01:38:46.091Z,11.59
2022-11-12T01:41:16.884Z,11.14
2022-11-12T01:43:45.245Z,11.46
2022-11-12T01:46:18.793Z,11.02
2022-11-12T01:48:49.953Z,11.10
2022-11-12T01:51:18.326Z,11.20
2022-11-12T01:53:49.052Z,11.45
2022-11-12T01:56:17.885Z,11.83
2022-11-12T01:58:46.476Z,11.50
2022-11-12T02:01:16.168Z,11.70
2022-11-12T02:03:44.729Z,11.45
2022-11-12T02:06:15.040Z,11.80
2022-11-12T02:08:43.541Z,11.49
2022-11-12T02:11:14.298Z,11.25
2022-11-12T02:14:01.129Z,11.23
2022-11-12T02:16:33.597Z,11.06
2022-11-12T02:19:02.553Z,11.10
2022-11-12T02:21:32.524Z,11.12
2022-11-12T02:24:02.279Z,10.74
2022-11-12T02:26:34.139Z,11.07
2022-11-12T02:29:02.624Z,10.53
2022-11-12T02:31:31.140Z,10.51
2022-11-12T02:33:59.492Z,10.89
2022-11-12T02:36:28.298Z,10.79
2022-11-12T02:38:58.284Z,10.54
2022-11-12T02:41:26.633Z,10.62
2022-11-12T02:43:54.949Z,10.87
2022-11-12T02:46:23.216Z,10.88
2022-11-12T02:48:51.472Z,11.16
2022-11-12T02:51:19.847Z,11.46
2022-11-12T02:53:48.115Z,11.51
2022-11-12T02:56:17.778Z,11.69
2022-11-12T02:58:46.002Z,11.68
2022-11-12T03:01:14.338Z,11.27
2022-11-12T03:03:42.650Z,11.58
2022-11-12T03:06:11.019Z,11.62
2022-11-12T03:08:39.423Z,11.85
2022-11-12T03:11:09.012Z,11.96
2022-11-12T03:13:38.832Z,11.98
2022-11-12T03:16:07.709Z,11.94
2022-11-12T03:18:36.062Z,11.61
2022-11-12T03:21:04.943Z,12.13
2022-11-12T03:23:33.204Z,12.05
2022-11-12T03:26:03.862Z,12.07
2022-11-12T03:28:31.992Z,12.38
2022-11-12T03:31:01.716Z,12.32
2022-11-12T03:33:30.009Z,12.29
2022-11-12T03:35:58.346Z,11.81
2022-11-12T03:38:27.071Z,12.31
2022-11-12T03:40:55.540Z,12.38
2022-11-12T03:43:23.783Z,11.93
2022-11-12T03:45:52.128Z,12.30
2022-11-12T03:48:21.921Z,11.61
2022-11-12T03:50:50.199Z,11.98
2022-11-12T03:53:18.608Z,11.69
2022-11-12T03:55:46.895Z,11.80
2022-11-12T03:58:15.226Z,11.78
2022-11-12T04:00:43.607Z,11.47
2022-11-12T04:03:12.036Z,11.26
2022-11-12T04:05:59.021Z,11.92
2022-11-12T04:08:39.629Z,11.94
2022-11-12T04:11:09.890Z,12.12
2022-11-12T04:13:39.006Z,11.49
2022-11-12T04:16:35.128Z,12.00
2022-11-12T04:19:22.211Z,11.88
2022-11-12T04:21:55.878Z,12.14
2022-11-12T04:24:44.344Z,12.25
2022-11-12T04:27:15.241Z,12.28
2022-11-12T04:30:01.174Z,12.29
2022-11-12T04:32:29.755Z,12.26
2022-11-12T04:34:58.162Z,12.05
2022-11-12T04:37:29.160Z,11.94
2022-11-12T04:40:18.920Z,11.87
2022-11-12T04:43:06.560Z,11.59
2022-11-12T04:45:42.748Z,11.72
2022-11-12T04:48:11.067Z,11.75
2022-11-12T04:50:39.500Z,11.65
2022-11-12T04:53:09.188Z,11.70
2022-11-12T04:55:37.494Z,11.89
2022-11-12T04:58:05.824Z,11.79
2022-11-12T05:00:34.248Z,11.95
2022-11-12T05:03:02.516Z,11.79
2022-11-12T05:05:33.852Z,11.59
2022-11-12T05:08:02.685Z,11.22
2022-11-12T05:10:32.404Z,11.22
2022-11-12T05:13:00.924Z,11.52
2022-11-12T05:15:29.268Z,11.73
2022-11-12T05:17:57.621Z,11.61
2022-11-12T05:20:25.861Z,11.44
2022-11-12T05:23:06.187Z,11.29
2022-11-12T05:25:37.232Z,11.36
2022-11-12T05:28:07.203Z,11.21
2022-11-12T05:30:36.712Z,10.71
2022-11-12T05:33:05.278Z,10.65
2022-11-12T05:35:33.675Z,10.49
2022-11-12T05:38:02.050Z,10.29
2022-11-12T05:40:30.292Z,10.48
2022-11-12T05:42:59.948Z,10.56
2022-11-12T05:45:28.242Z,10.44
2022-11-12T05:47:56.669Z,9.71
2022-11-12T05:50:28.185Z,9.90
2022-11-12T05:53:03.199Z,10.03
2022-11-12T05:55:36.911Z,10.60
2022-11-12T05:58:07.622Z,10.74
2022-11-12T06:00:39.109Z,10.64
2022-11-12T06:03:07.832Z,9.92
2022-11-12T06:05:36.488Z,9.63
2022-11-12T06:08:05.583Z,9.46
2022-11-12T06:10:34.204Z,9.93
2022-11-12T06:13:02.476Z,10.28
2022-11-12T06:15:38.006Z,10.17
2022-11-12T06:18:07.588Z,10.27
2022-11-12T06:20:36.238Z,9.92
2022-11-12T06:23:04.613Z,9.90
2022-11-12T06:25:33.017Z,10.32
2022-11-12T06:28:01.316Z,10.31
2022-11-12T06:30:29.754Z,10.76
2022-11-12T06:32:59.421Z,10.16
2022-11-12T06:35:27.677Z,10.40
2022-11-12T06:37:56.392Z,9.63
2022-11-12T06:40:24.729Z,9.51
2022-11-12T06:42:57.966Z,9.09
2022-11-12T06:45:26.682Z,9.87
2022-11-12T06:48:00.295Z,9.33
2022-11-12T06:50:28.606Z,9.13
2022-11-12T06:52:59.768Z,9.52
2022-11-12T06:55:28.072Z,9.43
2022-11-12T06:57:56.482Z,9.82
2022-11-12T07:00:24.857Z,9.37
2022-11-12T07:02:53.166Z,9.86
2022-11-12T07:05:22.997Z,10.44
2022-11-12T07:07:51.379Z,10.41
2022-11-12T07:10:19.971Z,10.50
2022-11-12T07:12:53.132Z,10.34
2022-11-12T07:15:21.865Z,10.02
2022-11-12T07:17:50.237Z,9.90
2022-11-12T07:20:18.730Z,10.39
2022-11-12T07:22:48.502Z,10.01
2022-11-12T07:25:17.035Z,10.17
2022-11-12T07:27:45.405Z,10.28
2022-11-12T07:30:14.482Z,9.84
2022-11-12T07:32:46.207Z,10.79
2022-11-12T07:35:17.963Z,10.40
2022-11-12T07:37:46.279Z,9.60
2022-11-12T07:40:16.386Z,10.40
2022-11-12T07:42:46.009Z,10.94
2022-11-12T07:45:14.436Z,11.16
2022-11-12T07:47:42.764Z,11.35
2022-11-12T07:50:11.426Z,11.14
2022-11-12T07:52:39.803Z,10.58
2022-11-12T07:55:08.849Z,11.31
2022-11-12T07:57:38.558Z,10.49
2022-11-12T08:00:08.150Z,10.44
2022-11-12T08:02:36.702Z,11.13
2022-11-12T08:05:12.005Z,11.25
2022-11-12T08:07:43.073Z,10.87
2022-11-12T08:10:11.676Z,11.49
2022-11-12T08:12:41.361Z,11.64
2022-11-12T08:15:10.374Z,10.69
2022-11-12T08:17:39.991Z,10.78
2022-11-12T08:20:09.325Z,11.01
2022-11-12T08:22:37.751Z,11.09
2022-11-12T08:25:06.855Z,11.01
2022-11-12T08:27:35.266Z,10.69
2022-11-12T08:30:05.782Z,11.24
2022-11-12T08:32:34.028Z,11.36
2022-11-12T08:35:02.511Z,11.06
2022-11-12T08:37:30.760Z,11.53
2022-11-12T08:39:59.045Z,11.67
2022-11-12T08:42:27.383Z,11.03
2022-11-12T08:44:55.596Z,11.82
2022-11-12T08:47:25.256Z,11.35
2022-11-12T08:49:53.709Z,11.96
2022-11-12T08:52:22.069Z,11.91
2022-11-12T08:54:50.323Z,11.67
2022-11-12T08:57:18.678Z,12.40
2022-11-12T08:59:47.030Z,12.08
2022-11-12T09:02:15.557Z,11.78
2022-11-12T09:04:45.474Z,11.92
2022-11-12T09:07:43.250Z,11.44
2022-11-12T09:10:02.215Z,11.50
2022-11-12T09:12:30.818Z,10.69
2022-11-12T09:15:09.578Z,12.55
2022-11-12T09:17:47.394Z,12.48
2022-11-12T09:20:17.437Z,12.94
2022-11-12T09:22:45.719Z,12.66
2022-11-12T09:25:14.056Z,12.17
2022-11-12T09:27:48.133Z,12.54
2022-11-12T09:30:17.084Z,12.73
2022-11-12T09:32:45.448Z,12.37
2022-11-12T09:35:13.752Z,12.82
2022-11-12T09:37:43.432Z,13.18
2022-11-12T09:40:17.571Z,12.46
2022-11-12T09:42:48.390Z,13.38
2022-11-12T09:45:22.270Z,13.69
2022-11-12T09:47:52.944Z,13.73
2022-11-12T09:50:22.419Z,13.20
2022-11-12T09:52:57.390Z,11.99
2022-11-12T09:55:31.336Z,12.66
2022-11-12T09:57:59.630Z,13.64
2022-11-12T10:00:27.985Z,13.96
2022-11-12T10:03:00.932Z,12.54
2022-11-12T10:05:34.686Z,12.23
2022-11-12T10:08:21.658Z,11.36
2022-11-12T10:10:51.405Z,11.80
2022-11-12T10:13:28.564Z,12.48
2022-11-12T10:16:35.125Z,13.22
2022-11-12T10:19:28.477Z,13.09
2022-11-12T10:22:04.616Z,11.82
2022-11-12T10:24:37.989Z,11.93
2022-11-12T10:27:14.005Z,12.71
2022-11-12T10:29:49.209Z,13.57
2022-11-12T10:32:17.615Z,13.71
2022-11-12T10:34:46.018Z,11.83
2022-11-12T10:37:17.382Z,13.80
2022-11-12T10:39:47.756Z,12.61
2022-11-12T10:42:18.338Z,12.18
2022-11-12T10:44:46.565Z,13.68
2022-11-12T10:47:24.735Z,12.96
2022-11-12T10:50:17.574Z,13.66
2022-11-12T10:53:00.649Z,13.34
2022-11-12T10:55:32.041Z,13.27
2022-11-12T10:58:21.365Z,12.58
2022-11-12T11:01:07.603Z,12.74
2022-11-12T11:03:37.653Z,13.10
2022-11-12T11:06:07.763Z,13.26
2022-11-12T11:08:39.676Z,14.69
2022-11-12T11:11:25.836Z,15.14
2022-11-12T11:13:56.041Z,14.62
2022-11-12T11:16:25.906Z,15.46
2022-11-12T11:18:57.421Z,15.54
2022-11-12T11:21:51.679Z,15.33
2022-11-12T11:24:31.210Z,15.23
2022-11-12T11:27:05.541Z,14.16
2022-11-12T11:29:58.831Z,14.74
2022-11-12T11:32:42.090Z,15.37
2022-11-12T11:35:22.062Z,14.00
2022-11-12T11:38:02.456Z,14.81
2022-11-12T11:40:33.223Z,14.21
2022-11-12T11:43:31.078Z,14.91
2022-11-12T11:46:07.231Z,14.10
2022-11-12T11:48:46.989Z,14.60
2022-11-12T11:51:28.086Z,13.32
2022-11-12T11:54:03.359Z,14.50
2022-11-12T11:56:35.296Z,14.85
2022-11-12T11:59:13.923Z,14.04
2022-11-12T12:01:58.252Z,14.00
2022-11-12T12:04:44.159Z,13.96
2022-11-12T12:07:23.101Z,14.40
2022-11-12T12:09:58.254Z,14.56
2022-11-12T12:12:36.453Z,13.59
2022-11-12T12:15:20.519Z,13.91
2022-11-12T12:17:57.852Z,13.23
2022-11-12T12:20:30.311Z,14.39
2022-11-12T12:23:01.714Z,14.29
2022-11-12T12:25:33.620Z,14.07
2022-11-12T12:28:06.771Z,13.66
2022-11-12T12:30:38.089Z,13.87
2022-11-12T12:33:15.596Z,14.11
2022-11-12T12:35:51.780Z,14.38
2022-11-12T12:38:24.825Z,13.00
2022-11-12T12:40:58.836Z,14.06
2022-11-12T12:43:30.238Z,14.36
2022-11-12T12:46:00.013Z,13.09
2022-11-12T12:48:31.803Z,14.48
2022-11-12T12:51:00.255Z,14.23
2022-11-12T12:53:35.767Z,14.58
2022-11-12T12:56:05.811Z,14.30
2022-11-12T12:58:35.427Z,14.17
2022-11-12T13:01:08.263Z,14.81
2022-11-12T13:04:02.383Z,14.86
2022-11-12T13:06:35.530Z,14.66
2022-11-12T13:09:06.085Z,15.05
2022-11-12T13:12:08.883Z,15.23
2022-11-12T13:14:54.523Z,15.33
2022-11-12T13:17:51.467Z,15.53
2022-11-12T13:20:38.529Z,15.49
2022-11-12T13:23:11.739Z,15.48
2022-11-12T13:25:40.262Z,15.13
2022-11-12T13:28:10.609Z,15.29
2022-11-12T13:31:02.436Z,14.95
2022-11-12T13:33:34.714Z,14.66
2022-11-12T13:36:26.549Z,14.85
2022-11-12T13:38:59.604Z,14.83
2022-11-12T13:41:46.418Z,14.72
2022-11-12T13:44:17.555Z,14.79
2022-11-12T13:46:46.777Z,14.47
2022-11-12T13:49:18.409Z,13.53
2022-11-12T13:51:48.114Z,14.14
2022-11-12T13:54:31.229Z,13.63
2022-11-12T13:57:14.870Z,14.61
2022-11-12T13:59:43.329Z,14.74
2022-11-12T14:02:23.340Z,14.84
2022-11-12T14:04:53.809Z,14.77
2022-11-12T14:07:35.492Z,14.32
2022-11-12T14:10:07.863Z,14.01
2022-11-12T14:12:47.042Z,14.54
2022-11-12T14:15:24.989Z,14.57
2022-11-12T14:17:59.447Z,14.43
2022-11-12T14:20:31.394Z,14.46
2022-11-12T14:23:05.720Z,14.88
2022-11-12T14:25:34.396Z,14.14
2022-11-12T14:28:02.819Z,14.08
2022-11-12T14:30:32.197Z,14.41
2022-11-12T14:33:02.221Z,14.25
2022-11-12T14:35:34.662Z,13.56
2022-11-12T14:38:21.321Z,14.29
2022-11-12T14:40:52.433Z,13.47
2022-11-12T14:43:28.268Z,13.57
2022-11-12T14:45:57.961Z,14.04
2022-11-12T14:48:26.808Z,13.13
2022-11-12T14:51:01.651Z,14.19
2022-11-12T14:53:33.113Z,14.46
2022-11-12T14:56:02.932Z,14.47
2022-11-12T14:58:32.101Z,14.59
2022-11-12T15:01:00.530Z,14.09
2022-11-12T15:03:33.716Z,14.60
2022-11-12T15:06:11.201Z,14.50
2022-11-12T15:08:41.120Z,13.11
2022-11-12T15:11:23.537Z,13.99
2022-11-12T15:13:52.950Z,12.98
2022-11-12T15:16:24.607Z,13.04
2022-11-12T15:19:20.959Z,12.45
2022-11-12T15:21:52.394Z,12.36
2022-11-12T15:24:32.094Z,12.37
2022-11-12T15:27:02.167Z,12.42
2022-11-12T15:29:32.794Z,12.09
2022-11-12T15:32:02.005Z,12.23
2022-11-12T15:34:45.436Z,12.66
2022-11-12T15:37:24.026Z,13.06
2022-11-12T15:39:55.114Z,12.68
2022-11-12T15:42:27.874Z,13.07
2022-11-12T15:44:59.696Z,12.74
2022-11-12T15:47:28.064Z,12.72
2022-11-12T15:49:58.731Z,13.48
2022-11-12T15:52:28.276Z,13.74
2022-11-12T15:54:56.620Z,12.49
2022-11-12T15:57:26.874Z,12.11
2022-11-12T16:00:02.964Z,11.87
2022-11-12T16:02:34.941Z,12.34
2022-11-12T16:05:03.304Z,12.94
2022-11-12T16:07:34.427Z,13.13
2022-11-12T16:10:02.779Z,13.42
2022-11-12T16:12:31.138Z,13.78
2022-11-12T16:15:00.300Z,12.99
2022-11-12T16:17:28.744Z,12.50
2022-11-12T16:19:57.132Z,13.18
2022-11-12T16:22:25.904Z,13.24
2022-11-12T16:24:55.630Z,12.62
2022-11-12T16:27:24.016Z,12.27
2022-11-12T16:29:52.502Z,12.91
2022-11-12T16:32:22.175Z,12.77
2022-11-12T16:34:50.503Z,12.70
2022-11-12T16:37:18.881Z,12.93
2022-11-12T16:39:47.229Z,12.13
2022-11-12T16:42:16.979Z,12.66
2022-11-12T16:44:45.442Z,12.46
2022-11-12T16:47:13.814Z,11.97
2022-11-12T16:49:42.818Z,11.83
2022-11-12T16:52:11.606Z,11.55
2022-11-12T16:54:40.098Z,11.16
2022-11-12T16:57:10.507Z,11.51
2022-11-12T16:59:40.285Z,11.50
2022-11-12T17:02:13.199Z,12.09
2022-11-12T17:04:41.582Z,12.07
2022-11-12T17:07:10.133Z,11.35
2022-11-12T17:09:38.518Z,11.30
2022-11-12T17:12:06.998Z,11.81
2022-11-12T17:14:35.402Z,11.32
2022-11-12T17:17:05.166Z,12.11
2022-11-12T17:19:33.551Z,12.01
2022-11-12T17:22:01.904Z,12.38
2022-11-12T17:24:30.475Z,11.84
2022-11-12T17:27:00.165Z,12.18
2022-11-12T17:29:28.705Z,12.64
2022-11-12T17:31:57.127Z,12.59
2022-11-12T17:34:26.986Z,12.16
2022-11-12T17:36:55.403Z,12.38
2022-11-12T17:39:23.763Z,12.57
2022-11-12T17:41:52.182Z,12.64
2022-11-12T17:44:21.353Z,12.99
2022-11-12T17:46:50.479Z,12.97
2022-11-12T17:49:19.682Z,12.58
2022-11-12T17:51:49.422Z,12.87
2022-11-12T17:54:17.750Z,12.95
2022-11-12T17:56:46.092Z,13.27
2022-11-12T17:59:14.439Z,13.22
2022-11-12T18:01:42.885Z,13.11
2022-11-12T18:04:11.622Z,12.99
2022-11-12T18:06:40.208Z,13.01
2022-11-12T18:09:14.439Z,13.39
2022-11-12T18:11:44.696Z,12.38
2022-11-12T18:14:13.522Z,12.98
2022-11-12T18:16:42.029Z,13.37
2022-11-12T18:19:12.534Z,13.44
2022-11-12T18:21:41.375Z,12.33
2022-11-12T18:24:15.134Z,12.07
2022-11-12T18:26:44.403Z,11.81
2022-11-12T18:29:13.373Z,11.63
2022-11-12T18:31:41.718Z,12.57
2022-11-12T18:34:12.173Z,13.14
2022-11-12T18:36:40.566Z,12.89
2022-11-12T18:39:08.941Z,13.06
2022-11-12T18:41:38.746Z,12.05
2022-11-12T18:44:07.236Z,11.93
2022-11-12T18:46:35.722Z,11.90
2022-11-12T18:49:04.060Z,11.36
2022-11-12T18:51:32.430Z,12.39
2022-11-12T18:54:00.716Z,12.03
2022-11-12T18:56:29.050Z,12.16
2022-11-12T18:58:58.764Z,12.73
2022-11-12T19:01:27.304Z,11.91
2022-11-12T19:03:57.226Z,12.34
2022-11-12T19:06:26.051Z,11.90
2022-11-12T19:09:00.193Z,11.49
2022-11-12T19:11:28.964Z,11.22
2022-11-12T19:13:58.889Z,12.20
2022-11-12T19:16:27.387Z,12.75
2022-11-12T19:18:55.913Z,12.74
2022-11-12T19:21:25.609Z,12.44
2022-11-12T19:23:55.052Z,12.03
2022-11-12T19:26:24.202Z,12.62
2022-11-12T19:28:52.708Z,12.47
2022-11-12T19:31:24.028Z,13.09
2022-11-12T19:33:52.797Z,13.10
2022-11-12T19:36:22.658Z,13.37
2022-11-12T19:38:55.556Z,13.56
2022-11-12T19:41:24.144Z,13.25
2022-11-12T19:43:52.987Z,12.08
2022-11-12T19:46:22.789Z,11.84
2022-11-12T19:48:51.816Z,12.67
2022-11-12T19:51:20.149Z,12.63
2022-11-12T19:53:48.497Z,11.80
2022-11-12T19:56:18.743Z,11.84
2022-11-12T19:58:48.240Z,12.38
2022-11-12T20:01:18.351Z,12.28
2022-11-12T20:03:48.272Z,12.97
2022-11-12T20:06:18.808Z,12.64
2022-11-12T20:08:47.569Z,12.46
2022-11-12T20:11:18.436Z,11.97
2022-11-12T20:13:46.938Z,12.76
2022-11-12T20:16:20.760Z,12.92
2022-11-12T20:18:55.660Z,12.01
2022-11-12T20:21:24.170Z,12.48
2022-11-12T20:23:52.497Z,12.23
2022-11-12T20:26:20.817Z,12.58
2022-11-12T20:28:49.206Z,12.15
2022-11-12T20:31:20.515Z,12.25
2022-11-12T20:33:49.797Z,12.53
2022-11-12T20:36:21.021Z,12.85
2022-11-12T20:38:50.571Z,12.47
2022-11-12T20:41:20.724Z,12.45
2022-11-12T20:43:49.420Z,12.00
2022-11-12T20:46:17.709Z,11.50
2022-11-12T20:48:46.056Z,12.42
2022-11-12T20:51:25.554Z,12.28
2022-11-12T20:54:00.463Z,11.62
2022-11-12T20:56:29.833Z,12.15
2022-11-12T20:58:58.437Z,12.09
2022-11-12T21:01:28.275Z,12.05
2022-11-12T21:03:56.720Z,11.63
2022-11-12T21:06:26.441Z,12.04
2022-11-12T21:08:58.881Z,11.61
2022-11-12T21:11:27.356Z,11.21
2022-11-12T21:13:55.804Z,11.24
2022-11-12T21:16:24.118Z,10.91
2022-11-12T21:18:52.529Z,10.97
2022-11-12T21:21:21.291Z,10.64
2022-11-12T21:23:50.957Z,10.45
2022-11-12T21:26:22.687Z,10.65
2022-11-12T21:28:52.249Z,10.73
2022-11-12T21:31:22.092Z,11.01
2022-11-12T21:33:51.099Z,10.90
2022-11-12T21:36:20.225Z,10.93
2022-11-12T21:38:48.727Z,11.04
2022-11-12T21:41:18.183Z,10.88
2022-11-12T21:43:48.403Z,11.03
2022-11-12T21:46:18.659Z,11.22
2022-11-12T21:48:50.977Z,11.53
2022-11-12T21:51:24.043Z,11.27
2022-11-12T21:53:55.243Z,11.65
2022-11-12T21:56:24.174Z,11.25
2022-11-12T21:58:56.080Z,11.51
2022-11-12T22:01:25.879Z,11.44
2022-11-12T22:03:55.916Z,10.92
2022-11-12T22:06:25.839Z,10.33
2022-11-12T22:08:54.712Z,10.43
2022-11-12T22:11:23.569Z,10.78
2022-11-12T22:13:52.000Z,10.52
2022-11-12T22:16:23.012Z,9.99
2022-11-12T22:18:52.653Z,10.90
2022-11-12T22:21:22.582Z,10.30
2022-11-12T22:23:51.047Z,9.79
2022-11-12T22:26:21.893Z,10.74
2022-11-12T22:28:50.364Z,10.12
2022-11-12T22:31:22.164Z,10.06
2022-11-12T22:33:51.065Z,10.18
2022-11-12T22:36:21.411Z,10.58
2022-11-12T22:38:51.457Z,10.83
2022-11-12T22:41:21.468Z,10.28
2022-11-12T22:43:50.700Z,11.23
2022-11-12T22:46:22.284Z,10.90
2022-11-12T22:48:50.991Z,11.45
2022-11-12T22:51:21.057Z,11.37
2022-11-12T22:53:53.622Z,10.82
2022-11-12T22:56:22.016Z,10.94
2022-11-12T22:58:51.333Z,10.96
2022-11-12T23:01:23.268Z,10.86
2022-11-12T23:03:52.743Z,11.40
2022-11-12T23:06:21.186Z,11.02
2022-11-12T23:08:49.747Z,10.63
2022-11-12T23:11:19.399Z,10.28
2022-11-12T23:13:47.990Z,10.15
2022-11-12T23:16:18.022Z,10.61
2022-11-12T23:18:48.054Z,11.01
2022-11-12T23:21:17.831Z,10.43
2022-11-12T23:23:46.154Z,10.00
2022-11-12T23:26:16.065Z,10.76
2022-11-12T23:28:44.474Z,9.94
2022-11-12T23:31:15.033Z,9.79
2022-11-12T23:33:47.009Z,10.04
2022-11-12T23:36:15.682Z,9.28
2022-11-12T23:38:44.536Z,9.25
2022-11-12T23:41:14.537Z,9.30
2022-11-12T23:43:43.018Z,9.19
2022-11-12T23:46:11.413Z,9.15
2022-11-12T23:48:39.892Z,9.88
2022-11-12T23:51:12.351Z,9.45
2022-11-12T23:53:41.243Z,10.39
2022-11-12T23:56:13.584Z,9.54
2022-11-12T23:58:42.708Z,10.52
